createdAt,value
2018-03-11T00:00:46.141Z,13.83
2018-03-11T00:03:14.782Z,14.23
2018-03-11T00:05:43.479Z,14.95
2018-03-11T00:08:12.505Z,14.54
2018-03-11T00:10:41.193Z,14.08
2018-03-11T00:13:09.882Z,14.18
2018-03-11T00:15:38.619Z,14.03
2018-03-11T00:18:07.973Z,13.87
2018-03-11T00:20:36.604Z,14.56
2018-03-11T00:23:06.101Z,14.50
2018-03-11T00:25:35.570Z,14.75
2018-03-11T00:28:04.208Z,14.38
2018-03-11T00:30:33.344Z,14.37
2018-03-11T00:33:02.031Z,14.43
2018-03-11T00:35:30.717Z,14.41
2018-03-11T00:37:59.610Z,14.89
2018-03-11T00:40:28.296Z,14.99
2018-03-11T00:42:56.915Z,14.92
2018-03-11T00:45:26.381Z,15.15
2018-03-11T00:47:54.957Z,14.92
2018-03-11T00:50:23.653Z,14.53
2018-03-11T00:52:52.537Z,14.48
2018-03-11T00:55:21.123Z,14.58
2018-03-11T00:57:49.815Z,14.86
2018-03-11T01:00:18.597Z,15.35
2018-03-11T01:02:47.281Z,15.33
2018-03-11T01:05:15.966Z,14.76
2018-03-11T01:07:44.760Z,14.71
2018-03-11T01:10:13.447Z,15.01
2018-03-11T01:12:42.232Z,15.60
2018-03-11T01:15:11.225Z,16.10
2018-03-11T01:17:39.910Z,16.05
2018-03-11T01:20:08.536Z,16.33
2018-03-11T01:22:38.002Z,16.45
2018-03-11T01:25:06.680Z,16.22
2018-03-11T01:27:35.366Z,16.02
2018-03-11T01:30:04.360Z,15.44
2018-03-11T01:32:33.002Z,15.72
2018-03-11T01:35:01.738Z,15.01
2018-03-11T01:37:31.241Z,15.73
2018-03-11T01:39:59.925Z,14.67
2018-03-11T01:42:28.473Z,14.34
2018-03-11T01:44:57.198Z,14.78
2018-03-11T01:47:25.883Z,15.42
2018-03-11T01:49:54.668Z,15.85
2018-03-11T01:52:23.621Z,14.82
2018-03-11T01:54:52.348Z,15.14
2018-03-11T01:57:21.033Z,15.18
2018-03-11T01:59:49.725Z,15.61
2018-03-11T02:02:18.286Z,14.04
2018-03-11T02:04:46.982Z,15.23
2018-03-11T02:07:15.777Z,14.97
2018-03-11T02:09:44.463Z,15.64
2018-03-11T02:12:13.049Z,15.31
2018-03-11T02:14:41.781Z,15.07
2018-03-11T02:17:11.233Z,15.20
2018-03-11T02:19:39.969Z,15.68
2018-03-11T02:22:09.524Z,15.38
2018-03-11T02:24:38.211Z,14.85
2018-03-11T02:27:06.846Z,15.03
2018-03-11T02:29:36.504Z,15.10
2018-03-11T02:32:05.191Z,15.59
2018-03-11T02:34:33.825Z,15.39
2018-03-11T02:37:03.278Z,15.36
2018-03-11T02:39:31.863Z,14.73
2018-03-11T02:42:00.533Z,14.76
2018-03-11T02:44:29.248Z,15.34
2018-03-11T02:46:57.920Z,15.50
2018-03-11T02:49:26.606Z,15.40
2018-03-11T02:51:55.402Z,15.94
2018-03-11T02:54:24.087Z,15.58
2018-03-11T02:56:52.708Z,16.31
2018-03-11T02:59:22.180Z,14.35
2018-03-11T03:01:50.745Z,13.77
2018-03-11T03:04:19.439Z,15.31
2018-03-11T03:06:49.359Z,15.17
2018-03-11T03:09:18.045Z,15.84
2018-03-11T03:11:46.666Z,15.51
2018-03-11T03:14:16.136Z,15.52
2018-03-11T03:16:44.754Z,15.12
2018-03-11T03:19:14.215Z,14.74
2018-03-11T03:21:43.208Z,14.29
2018-03-11T03:24:11.864Z,14.29
2018-03-11T03:26:40.526Z,14.86
2018-03-11T03:29:10.186Z,15.23
2018-03-11T03:31:38.873Z,15.39
2018-03-11T03:34:07.416Z,15.49
2018-03-11T03:36:36.198Z,14.99
2018-03-11T03:39:05.039Z,15.07
2018-03-11T03:41:33.603Z,14.93
2018-03-11T03:44:03.378Z,14.65
2018-03-11T03:46:32.838Z,14.49
2018-03-11T03:49:01.462Z,14.79
2018-03-11T03:51:31.025Z,13.87
2018-03-11T03:53:59.723Z,14.01
2018-03-11T03:56:28.494Z,14.37
2018-03-11T03:58:57.180Z,14.18
2018-03-11T04:01:25.768Z,14.07
2018-03-11T04:03:54.454Z,13.23
2018-03-11T04:06:23.188Z,12.56
2018-03-11T04:08:52.648Z,12.91
2018-03-11T04:11:21.334Z,13.44
2018-03-11T04:13:50.066Z,13.74
2018-03-11T04:16:19.516Z,13.55
2018-03-11T04:18:48.203Z,13.80
2018-03-11T04:21:17.307Z,13.81
2018-03-11T04:23:45.933Z,13.52
2018-03-11T04:26:15.291Z,13.42
2018-03-11T04:28:43.945Z,13.47
2018-03-11T04:31:12.667Z,13.72
2018-03-11T04:33:41.340Z,13.73
2018-03-11T04:36:10.540Z,13.80
2018-03-11T04:38:39.267Z,13.94
2018-03-11T04:41:08.735Z,13.79
2018-03-11T04:43:37.681Z,13.44
2018-03-11T04:46:06.412Z,13.47
2018-03-11T04:48:35.099Z,13.08
2018-03-11T04:51:04.035Z,13.23
2018-03-11T04:53:33.393Z,13.83
2018-03-11T04:56:01.979Z,13.65
2018-03-11T04:58:30.762Z,13.80
2018-03-11T05:00:59.450Z,13.99
2018-03-11T05:03:28.252Z,14.33
2018-03-11T05:05:58.565Z,14.81
2018-03-11T05:08:27.141Z,16.22
2018-03-11T05:10:55.781Z,17.54
2018-03-11T05:13:24.746Z,17.17
2018-03-11T05:15:53.506Z,17.46
2018-03-11T05:18:22.191Z,15.88
2018-03-11T05:20:51.090Z,15.40
2018-03-11T05:23:19.772Z,15.25
2018-03-11T05:25:48.458Z,15.26
2018-03-11T05:28:17.451Z,15.26
2018-03-11T05:30:46.037Z,15.27
2018-03-11T05:33:14.661Z,15.58
2018-03-11T05:35:43.405Z,16.17
2018-03-11T05:38:12.047Z,17.01
2018-03-11T05:40:41.495Z,16.70
2018-03-11T05:43:10.279Z,16.82
2018-03-11T05:45:38.864Z,16.78
2018-03-11T05:48:07.552Z,18.92
2018-03-11T05:50:36.445Z,19.95
2018-03-11T05:53:05.082Z,21.55
2018-03-11T05:55:34.531Z,20.35
2018-03-11T05:58:03.216Z,18.79
2018-03-11T06:00:31.903Z,17.85
2018-03-11T06:03:00.529Z,17.33
2018-03-11T06:05:29.994Z,19.18
2018-03-11T06:07:58.584Z,20.54
2018-03-11T06:10:27.141Z,21.14
2018-03-11T06:12:56.043Z,20.75
2018-03-11T06:15:24.593Z,20.22
2018-03-11T06:17:53.140Z,20.44
2018-03-11T06:20:21.984Z,21.12
2018-03-11T06:22:50.950Z,19.66
2018-03-11T06:25:19.844Z,20.88
2018-03-11T06:27:48.598Z,21.16
2018-03-11T06:30:17.311Z,21.30
2018-03-11T06:32:46.516Z,21.06
2018-03-11T06:35:15.116Z,20.64
2018-03-11T06:37:43.672Z,19.99
2018-03-11T06:40:12.225Z,20.36
2018-03-11T06:42:41.584Z,19.91
2018-03-11T06:45:10.140Z,20.77
2018-03-11T06:47:38.688Z,19.61
2018-03-11T06:50:08.117Z,19.17
2018-03-11T06:52:36.665Z,19.61
2018-03-11T06:55:05.977Z,20.51
2018-03-11T06:57:34.731Z,20.22
2018-03-11T07:00:03.305Z,20.34
2018-03-11T07:02:31.899Z,20.42
2018-03-11T07:05:00.648Z,21.04
2018-03-11T07:07:29.197Z,20.74
2018-03-11T07:09:57.745Z,21.63
2018-03-11T07:12:28.285Z,20.68
2018-03-11T07:14:57.759Z,22.63
2018-03-11T07:17:26.449Z,21.23
2018-03-11T07:19:55.338Z,21.93
2018-03-11T07:22:24.028Z,20.78
2018-03-11T07:24:52.601Z,22.83
2018-03-11T07:27:21.205Z,22.12
2018-03-11T07:29:49.982Z,22.02
2018-03-11T07:32:18.627Z,23.01
2018-03-11T07:34:47.397Z,21.15
2018-03-11T07:37:16.853Z,21.78
2018-03-11T07:39:45.486Z,22.09
2018-03-11T07:42:14.947Z,22.55
2018-03-11T07:44:43.615Z,22.05
2018-03-11T07:47:12.260Z,22.40
2018-03-11T07:49:41.784Z,21.59
2018-03-11T07:52:10.501Z,22.19
2018-03-11T07:54:39.260Z,23.34
2018-03-11T07:57:08.488Z,22.39
2018-03-11T07:59:37.175Z,22.25
2018-03-11T08:02:05.860Z,22.52
2018-03-11T08:04:34.815Z,23.12
2018-03-11T08:07:03.539Z,22.91
2018-03-11T08:09:32.175Z,23.98
2018-03-11T08:12:01.217Z,22.95
2018-03-11T08:14:29.870Z,24.11
2018-03-11T08:16:58.489Z,24.00
2018-03-11T08:19:27.275Z,24.14
2018-03-11T08:21:55.941Z,24.12
2018-03-11T08:24:24.496Z,24.15
2018-03-11T08:26:54.050Z,23.38
2018-03-11T08:29:22.741Z,23.96
2018-03-11T08:31:51.360Z,24.82
2018-03-11T08:34:20.881Z,25.16
2018-03-11T08:36:49.614Z,24.27
2018-03-11T08:39:18.407Z,25.72
2018-03-11T08:41:47.136Z,24.54
2018-03-11T08:44:16.591Z,26.08
2018-03-11T08:46:45.222Z,25.25
2018-03-11T08:49:14.692Z,25.81
2018-03-11T08:51:44.908Z,25.89
2018-03-11T08:54:13.593Z,25.61
2018-03-11T08:56:42.541Z,25.51
2018-03-11T08:59:11.272Z,25.43
2018-03-11T09:01:39.958Z,25.98
2018-03-11T09:04:08.632Z,25.43
2018-03-11T09:06:37.329Z,25.69
2018-03-11T09:09:06.009Z,26.55
2018-03-11T09:11:34.700Z,26.02
2018-03-11T09:14:03.387Z,26.09
2018-03-11T09:16:32.071Z,26.75
2018-03-11T09:19:01.030Z,26.50
2018-03-11T09:21:30.527Z,27.24
2018-03-11T09:23:59.248Z,26.75
2018-03-11T09:26:28.455Z,27.14
2018-03-11T09:28:57.137Z,26.82
2018-03-11T09:31:25.714Z,25.45
2018-03-11T09:33:54.814Z,25.94
2018-03-11T09:36:23.435Z,25.64
2018-03-11T09:38:52.900Z,26.66
2018-03-11T09:41:21.695Z,25.90
2018-03-11T09:43:50.380Z,25.41
2018-03-11T09:46:18.957Z,26.42
2018-03-11T09:48:47.752Z,26.42
2018-03-11T09:51:16.438Z,27.76
2018-03-11T09:53:45.060Z,27.96
2018-03-11T09:56:14.726Z,26.11
2018-03-11T09:58:43.396Z,26.08
2018-03-11T10:01:12.090Z,26.42
2018-03-11T10:03:40.986Z,27.45
2018-03-11T10:06:09.630Z,26.93
2018-03-11T10:08:38.358Z,26.64
2018-03-11T10:11:07.352Z,27.52
2018-03-11T10:13:35.937Z,25.98
2018-03-11T10:16:04.625Z,26.14
2018-03-11T10:18:33.576Z,27.68
2018-03-11T10:21:02.304Z,29.22
2018-03-11T10:23:31.196Z,28.58
2018-03-11T10:26:00.079Z,26.88
2018-03-11T10:28:28.766Z,26.92
2018-03-11T10:30:57.354Z,27.11
2018-03-11T10:33:26.280Z,28.19
2018-03-11T10:35:55.032Z,26.86
2018-03-11T10:38:23.718Z,27.24
2018-03-11T10:40:52.556Z,28.33
2018-03-11T10:43:21.971Z,28.69
2018-03-11T10:45:51.372Z,28.11
2018-03-11T10:48:20.239Z,28.66
2018-03-11T10:50:49.729Z,28.43
2018-03-11T10:53:19.212Z,27.02
2018-03-11T10:55:48.144Z,27.22
2018-03-11T10:58:17.811Z,27.54
2018-03-11T11:03:53.081Z,27.95
2018-03-11T11:06:21.862Z,28.97
2018-03-11T11:08:50.549Z,27.39
2018-03-11T11:11:19.185Z,28.43
2018-03-11T11:13:49.655Z,27.69
2018-03-11T11:16:18.339Z,27.34
2018-03-11T11:18:47.025Z,27.75
2018-03-11T11:21:15.821Z,26.25
2018-03-11T11:23:44.496Z,27.09
2018-03-11T11:26:13.193Z,28.05
2018-03-11T11:28:42.081Z,27.41
2018-03-11T11:31:10.709Z,27.42
2018-03-11T11:33:40.170Z,28.23
2018-03-11T11:36:08.955Z,27.28
2018-03-11T11:38:37.642Z,27.59
2018-03-11T11:41:06.216Z,26.88
2018-03-11T11:43:34.905Z,26.30
2018-03-11T11:46:03.649Z,27.25
2018-03-11T11:48:33.097Z,29.24
2018-03-11T11:51:01.992Z,28.57
2018-03-11T11:53:30.680Z,28.34
2018-03-11T11:55:59.462Z,28.98
2018-03-11T11:58:28.257Z,28.82
2018-03-11T12:00:56.922Z,27.37
2018-03-11T12:03:25.627Z,26.89
2018-03-11T12:05:54.463Z,28.96
2018-03-11T12:08:23.197Z,28.80
2018-03-11T12:10:51.785Z,28.74
2018-03-11T12:13:20.614Z,27.04
2018-03-11T12:15:50.078Z,28.44
2018-03-11T12:18:18.763Z,26.00
2018-03-11T12:20:47.497Z,28.11
2018-03-11T12:23:16.956Z,27.40
2018-03-11T12:25:45.642Z,28.12
2018-03-11T12:28:14.573Z,27.52
2018-03-11T12:30:44.035Z,27.58
2018-03-11T12:33:12.721Z,28.39
2018-03-11T12:35:41.714Z,28.54
2018-03-11T12:38:10.300Z,28.36
2018-03-11T12:40:38.985Z,27.54
2018-03-11T12:43:07.932Z,28.19
2018-03-11T12:45:36.664Z,28.35
2018-03-11T12:48:05.243Z,27.66
2018-03-11T12:50:34.035Z,28.71
2018-03-11T12:53:02.819Z,29.86
2018-03-11T12:55:31.451Z,28.21
2018-03-11T12:58:01.177Z,28.40
2018-03-11T13:00:29.897Z,28.02
2018-03-11T13:02:58.585Z,28.32
2018-03-11T13:05:27.381Z,28.19
2018-03-11T13:07:56.976Z,27.47
2018-03-11T13:10:25.671Z,28.04
2018-03-11T13:12:54.403Z,27.17
2018-03-11T13:15:23.854Z,27.28
2018-03-11T13:17:52.489Z,27.90
2018-03-11T13:20:39.606Z,27.70
2018-03-11T13:23:09.068Z,28.53
2018-03-11T13:25:37.691Z,28.81
2018-03-11T13:28:25.072Z,27.68
2018-03-11T13:30:53.727Z,28.63
2018-03-11T13:33:40.520Z,27.70
2018-03-11T13:36:09.250Z,26.65
2018-03-11T13:38:56.232Z,26.97
2018-03-11T13:41:24.957Z,27.03
2018-03-11T13:43:53.504Z,27.04
2018-03-11T13:49:32.484Z,27.29
2018-03-11T13:52:19.053Z,27.54
2018-03-11T13:54:47.674Z,27.65
2018-03-11T14:00:47.149Z,28.39
2018-03-11T14:03:16.641Z,27.66
2018-03-11T14:05:46.106Z,28.20
2018-03-11T14:08:14.692Z,27.87
2018-03-11T14:10:43.565Z,27.04
2018-03-11T14:13:12.265Z,28.07
2018-03-11T14:15:40.962Z,29.21
2018-03-11T14:18:09.801Z,27.33
2018-03-11T14:20:38.494Z,28.36
2018-03-11T14:23:07.223Z,27.78
2018-03-11T14:25:36.205Z,28.27
2018-03-11T14:28:04.944Z,27.09
2018-03-11T14:30:34.405Z,27.84
2018-03-11T14:33:03.434Z,27.61
2018-03-11T14:35:32.901Z,27.85
2018-03-11T14:38:02.295Z,27.17
2018-03-11T14:40:31.467Z,27.67
2018-03-11T14:43:00.014Z,27.92
2018-03-11T14:45:28.675Z,27.84
2018-03-11T14:47:57.459Z,26.77
2018-03-11T14:50:26.115Z,27.40
2018-03-11T14:52:54.665Z,26.56
2018-03-11T14:55:24.145Z,26.86
2018-03-11T14:57:52.816Z,26.23
2018-03-11T15:00:21.504Z,26.13
2018-03-11T15:02:50.252Z,26.10
2018-03-11T15:05:18.982Z,26.59
2018-03-11T15:07:48.437Z,26.71
2018-03-11T15:10:17.166Z,26.48
2018-03-11T15:12:45.800Z,26.53
2018-03-11T15:15:15.262Z,26.03
2018-03-11T15:17:45.653Z,26.21
2018-03-11T15:20:14.329Z,26.67
2018-03-11T15:22:43.052Z,26.06
2018-03-11T15:25:11.991Z,26.15
2018-03-11T15:27:41.454Z,25.69
2018-03-11T15:30:10.072Z,25.10
2018-03-11T15:32:39.545Z,24.87
2018-03-11T15:35:08.226Z,25.48
2018-03-11T15:37:36.911Z,25.33
2018-03-11T15:40:05.680Z,25.33
2018-03-11T15:42:34.281Z,25.17
2018-03-11T15:45:02.976Z,24.84
2018-03-11T15:47:31.704Z,24.22
2018-03-11T15:50:01.162Z,24.24
2018-03-11T15:52:29.740Z,23.82
2018-03-11T15:54:59.346Z,23.50
2018-03-11T15:57:28.020Z,23.54
2018-03-11T15:59:56.677Z,23.23
2018-03-11T16:02:25.403Z,23.13
2018-03-11T16:04:54.092Z,22.85
2018-03-11T16:07:22.724Z,22.75
2018-03-11T16:09:52.496Z,22.74
2018-03-11T16:12:21.819Z,22.29
2018-03-11T16:14:51.290Z,22.17
2018-03-11T16:17:20.082Z,22.69
2018-03-11T16:19:48.770Z,22.52
2018-03-11T16:22:17.455Z,22.30
2018-03-11T16:24:46.626Z,21.85
2018-03-11T16:27:15.332Z,21.76
2018-03-11T16:29:43.962Z,21.61
2018-03-11T16:32:13.428Z,21.72
2018-03-11T16:34:42.050Z,21.43
2018-03-11T16:37:11.415Z,21.12
2018-03-11T16:39:40.098Z,21.15
2018-03-11T16:42:08.677Z,21.08
2018-03-11T16:44:37.361Z,20.69
2018-03-11T16:47:06.257Z,20.73
2018-03-11T16:49:34.934Z,20.64
2018-03-11T16:52:03.627Z,20.38
2018-03-11T16:54:32.411Z,20.32
2018-03-11T16:57:00.996Z,20.31
2018-03-11T16:59:29.684Z,20.33
2018-03-11T17:01:58.468Z,20.41
2018-03-11T17:04:27.154Z,20.17
2018-03-11T17:06:55.740Z,20.53
2018-03-11T17:09:24.525Z,20.60
2018-03-11T17:11:53.169Z,19.81
2018-03-11T17:14:21.896Z,20.05
2018-03-11T17:16:50.691Z,19.98
2018-03-11T17:19:19.411Z,20.02
2018-03-11T17:21:48.151Z,19.83
2018-03-11T17:24:16.985Z,19.60
2018-03-11T17:26:46.403Z,19.45
2018-03-11T17:29:15.096Z,19.41
2018-03-11T17:31:44.185Z,19.55
2018-03-11T17:34:12.908Z,19.71
2018-03-11T17:36:41.604Z,19.66
2018-03-11T17:39:10.368Z,19.46
2018-03-11T17:41:39.074Z,19.60
2018-03-11T17:44:07.760Z,19.78
2018-03-11T17:46:36.544Z,19.64
2018-03-11T17:49:05.190Z,19.53
2018-03-11T17:51:33.914Z,19.62
2018-03-11T17:54:02.710Z,19.66
2018-03-11T17:56:31.412Z,19.50
2018-03-11T17:59:00.893Z,19.47
2018-03-11T18:01:29.898Z,19.68
2018-03-11T18:03:58.523Z,19.96
2018-03-11T18:06:27.076Z,19.93
2018-03-11T18:08:56.865Z,19.67
2018-03-11T18:11:26.582Z,19.50
2018-03-11T18:13:55.268Z,19.45
2018-03-11T18:16:24.152Z,19.50
2018-03-11T18:18:52.853Z,19.66
2018-03-11T18:21:21.571Z,19.57
2018-03-11T18:23:51.043Z,19.63
2018-03-11T18:26:19.818Z,19.78
2018-03-11T18:28:48.501Z,19.56
2018-03-11T18:31:17.397Z,19.50
2018-03-11T18:33:45.953Z,19.36
2018-03-11T18:36:14.603Z,19.59
2018-03-11T18:38:44.075Z,19.47
2018-03-11T18:41:12.637Z,19.65
2018-03-11T18:43:41.334Z,19.73
2018-03-11T18:46:10.224Z,19.43
2018-03-11T18:48:38.909Z,19.37
2018-03-11T18:51:07.540Z,19.32
2018-03-11T18:53:37.312Z,19.18
2018-03-11T18:56:05.998Z,19.32
2018-03-11T18:58:34.615Z,19.39
2018-03-11T19:01:04.012Z,19.14
2018-03-11T19:03:32.723Z,19.39
2018-03-11T19:06:01.423Z,19.34
2018-03-11T19:08:30.563Z,19.12
2018-03-11T19:11:00.023Z,19.23
2018-03-11T19:13:28.709Z,18.93
2018-03-11T19:15:57.645Z,19.01
2018-03-11T19:18:26.343Z,18.97
2018-03-11T19:20:55.106Z,18.78
2018-03-11T19:23:24.068Z,19.10
2018-03-11T19:25:52.863Z,19.03
2018-03-11T19:28:21.413Z,18.74
2018-03-11T19:30:50.078Z,19.24
2018-03-11T19:33:18.790Z,19.36
2018-03-11T19:35:47.507Z,19.22
2018-03-11T19:38:16.582Z,19.32
2018-03-11T19:40:45.344Z,19.20
2018-03-11T19:43:14.029Z,19.15
2018-03-11T19:45:42.862Z,19.49
2018-03-11T19:48:12.275Z,19.26
2018-03-11T19:50:40.970Z,19.32
2018-03-11T19:53:10.140Z,19.36
2018-03-11T19:55:38.721Z,19.26
2018-03-11T19:58:07.319Z,19.14
2018-03-11T20:00:37.015Z,19.07
2018-03-11T20:03:05.782Z,19.03
2018-03-11T20:05:34.456Z,18.89
2018-03-11T20:08:03.523Z,18.98
2018-03-11T20:10:32.987Z,18.81
2018-03-11T20:13:01.634Z,18.69
2018-03-11T20:15:30.358Z,18.92
2018-03-11T20:17:59.044Z,18.60
2018-03-11T20:20:27.688Z,18.67
2018-03-11T20:22:56.624Z,18.43
2018-03-11T20:25:25.183Z,18.29
2018-03-11T20:27:53.942Z,18.53
2018-03-11T20:30:23.407Z,18.74
2018-03-11T20:32:52.080Z,18.68
2018-03-11T20:35:20.666Z,18.83
2018-03-11T20:37:49.451Z,18.76
2018-03-11T20:40:18.082Z,18.72
2018-03-11T20:42:47.547Z,18.72
2018-03-11T20:45:16.332Z,18.37
2018-03-11T20:47:45.021Z,18.39
2018-03-11T20:50:13.719Z,18.73
2018-03-11T20:55:17.932Z,19.02
2018-03-11T20:57:46.717Z,19.10
2018-03-11T21:00:15.347Z,19.04
2018-03-11T21:02:44.099Z,18.92
2018-03-11T21:05:12.837Z,18.82
2018-03-11T21:07:42.184Z,18.77
2018-03-11T21:10:10.871Z,18.95
2018-03-11T21:12:39.476Z,19.08
2018-03-11T21:15:08.133Z,19.23
2018-03-11T21:17:36.827Z,19.07
2018-03-11T21:20:05.717Z,18.97
2018-03-11T21:22:34.364Z,18.83
2018-03-11T21:25:03.082Z,18.67
2018-03-11T21:27:31.782Z,18.52
2018-03-11T21:30:00.454Z,18.25
2018-03-11T21:32:29.085Z,17.63
2018-03-11T21:34:58.748Z,17.49
2018-03-11T21:37:27.433Z,17.35
2018-03-11T21:39:56.842Z,17.73
2018-03-11T21:42:25.628Z,17.80
2018-03-11T21:44:54.301Z,17.30
2018-03-11T21:47:23.000Z,17.64
2018-03-11T21:49:51.996Z,17.58
2018-03-11T21:52:20.678Z,17.82
2018-03-11T21:54:49.326Z,18.01
2018-03-11T21:57:18.114Z,18.26
2018-03-11T21:59:46.834Z,17.14
2018-03-11T22:02:15.476Z,16.66
2018-03-11T22:04:44.489Z,16.12
2018-03-11T22:07:13.162Z,16.39
2018-03-11T22:09:41.791Z,16.78
2018-03-11T22:12:10.573Z,16.38
2018-03-11T22:14:39.256Z,17.00
2018-03-11T22:17:07.909Z,17.20
2018-03-11T22:19:36.902Z,17.14
2018-03-11T22:22:05.620Z,16.92
2018-03-11T22:24:34.305Z,16.64
2018-03-11T22:27:03.101Z,15.79
2018-03-11T22:29:31.770Z,15.34
2018-03-11T22:32:00.414Z,16.29
2018-03-11T22:34:29.887Z,16.46
2018-03-11T22:36:58.564Z,16.34
2018-03-11T22:39:27.148Z,16.50
2018-03-11T22:41:56.216Z,16.51
2018-03-11T22:44:24.922Z,16.65
2018-03-11T22:46:53.502Z,16.70
2018-03-11T22:49:22.294Z,16.70
2018-03-11T22:51:50.936Z,16.88
2018-03-11T22:54:19.666Z,16.35
2018-03-11T22:56:48.397Z,15.91
2018-03-11T22:59:17.859Z,15.43
2018-03-11T23:01:46.437Z,15.38
2018-03-11T23:04:15.375Z,15.40
2018-03-11T23:06:44.732Z,15.38
2018-03-11T23:09:13.362Z,14.66
2018-03-11T23:11:43.280Z,15.48
2018-03-11T23:14:12.739Z,15.33
2018-03-11T23:16:41.364Z,13.97
2018-03-11T23:19:23.112Z,15.04
2018-03-11T23:21:51.799Z,15.62
2018-03-11T23:24:20.486Z,15.96
2018-03-11T23:26:49.168Z,16.14
2018-03-11T23:29:17.856Z,15.70
2018-03-11T23:31:46.499Z,15.63
2018-03-11T23:34:15.492Z,15.71
2018-03-11T23:36:44.219Z,16.08
2018-03-11T23:39:12.906Z,16.08
2018-03-11T23:41:41.844Z,15.63
2018-03-11T23:44:11.298Z,15.24
2018-03-11T23:46:39.886Z,15.01
2018-03-11T23:49:08.624Z,15.07
2018-03-11T23:51:37.360Z,15.50
2018-03-11T23:54:06.808Z,15.63
2018-03-11T23:56:36.274Z,15.31
2018-03-11T23:59:04.948Z,15.25
